Time;durP1;ratioP1;P1;durP2;ratioP2;P2;SDS_P1;SDS_P2;PMS_P1;PMS_P2;Temp;Humidity;BMP_temperature;BMP_pressure;BME280_temperature;BME280_humidity;BME280_pressure;Samples;Min_cycle;Max_cycle;Signal;HPM_P1;HPM_P2
2021/01/08 00:00:55;;;;;;;62.55;25.05;;;;;;;-1.12;59.81;99806.06;5083971;28;20039;-58
2021/01/08 00:03:21;;;;;;;68.80;28.02;;;;;;;-1.19;59.85;99795.75;5072703;28;20079;-57
2021/01/08 00:05:46;;;;;;;69.80;26.70;;;;;;;-1.10;59.28;99812.13;5085448;28;20488;-56
2021/01/08 00:08:12;;;;;;;63.17;25.17;;;;;;;-1.22;59.95;99806.38;5077502;28;20046;-55
2021/01/08 00:10:37;;;;;;;49.58;18.13;;;;;;;-1.18;59.99;99805.38;5078394;28;20036;-54
2021/01/08 00:13:03;;;;;;;66.20;27.60;;;;;;;-1.40;60.35;99799.94;5084495;28;20032;-59
2021/01/08 00:15:28;;;;;;;54.10;22.70;;;;;;;-1.39;60.55;99782.41;5073415;28;20120;-56
2021/01/08 00:17:53;;;;;;;54.65;20.25;;;;;;;-1.49;60.15;99771.34;5073434;28;20044;-57
2021/01/08 00:20:19;;;;;;;59.15;23.27;;;;;;;-1.56;60.05;99777.69;5078627;28;20112;-61
2021/01/08 00:22:46;;;;;;;56.55;24.17;;;;;;;-1.48;60.40;99794.94;5077368;28;20377;-56
2021/01/08 00:25:11;;;;;;;53.03;19.60;;;;;;;-1.39;60.10;99795.53;5088242;28;20031;-58
2021/01/08 00:27:37;;;;;;;52.50;19.88;;;;;;;-1.40;60.65;99799.06;5077095;28;20177;-62
2021/01/08 00:30:04;;;;;;;54.55;22.30;;;;;;;-1.57;60.92;99789.09;5087694;28;20060;-60
2021/01/08 00:32:29;;;;;;;36.42;14.35;;;;;;;-1.47;60.59;99777.41;5083882;28;20028;-53
2021/01/08 00:34:55;;;;;;;57.05;23.75;;;;;;;-1.79;60.88;99748.66;5080437;28;20403;-58
2021/01/08 00:37:23;;;;;;;58.92;22.73;;;;;;;-1.61;60.63;99773.47;5090184;28;20357;-53
2021/01/08 00:39:49;;;;;;;46.53;17.10;;;;;;;-1.42;60.68;99791.25;5077794;28;20032;-60
2021/01/08 00:42:14;;;;;;;53.58;22.88;;;;;;;-1.47;60.49;99785.28;5086663;28;20123;-58
2021/01/08 00:44:39;;;;;;;43.10;18.92;;;;;;;-1.41;60.42;99771.09;5081557;28;20177;-56
2021/01/08 00:47:06;;;;;;;50.97;22.50;;;;;;;-1.59;60.63;99768.13;5088404;28;20089;-59
2021/01/08 00:49:32;;;;;;;46.13;18.60;;;;;;;-1.46;60.09;99780.00;5089799;28;20039;-56
2021/01/08 00:51:57;;;;;;;50.05;20.60;;;;;;;-1.52;60.54;99766.19;5079090;28;20028;-52
2021/01/08 00:54:22;;;;;;;48.63;21.77;;;;;;;-1.65;60.87;99766.59;5084080;28;20097;-58
2021/01/08 00:56:48;;;;;;;43.70;19.70;;;;;;;-1.54;60.57;99768.88;5085999;28;20455;-59
2021/01/08 00:59:14;;;;;;;24.52;9.23;;;;;;;-1.43;60.26;99771.16;5076769;28;20040;-58
2021/01/08 01:01:39;;;;;;;53.65;22.30;;;;;;;-1.70;60.92;99747.47;5089636;28;20052;-56
2021/01/08 01:04:05;;;;;;;23.73;7.82;;;;;;;-1.67;61.09;99744.78;5079852;28;20056;-58
2021/01/08 01:06:32;;;;;;;51.63;22.30;;;;;;;-1.56;60.99;99777.69;5082476;28;20132;-58
2021/01/08 01:08:59;;;;;;;54.88;22.45;;;;;;;-1.66;60.57;99757.00;5087075;28;20034;-58
2021/01/08 01:11:27;;;;;;;46.03;21.10;;;;;;;-1.50;60.88;99770.50;5076260;28;20551;-60
2021/01/08 01:13:55;;;;;;;50.85;21.75;;;;;;;-1.55;60.73;99768.91;5088048;28;20024;-59
2021/01/08 01:16:21;;;;;;;50.00;21.48;;;;;;;-1.53;61.27;99760.09;5082045;28;20046;-56
2021/01/08 01:18:48;;;;;;;49.53;21.70;;;;;;;-1.42;60.79;99749.25;5061408;28;20029;-55
2021/01/08 01:21:14;;;;;;;51.20;23.63;;;;;;;-1.35;60.41;99760.38;5088376;28;20028;-57
2021/01/08 01:23:40;;;;;;;49.78;19.48;;;;;;;-1.24;60.79;99765.28;5075521;28;20082;-57
2021/01/08 01:26:06;;;;;;;50.90;23.30;;;;;;;-1.41;60.73;99737.84;5085679;28;20082;-59
2021/01/08 01:28:31;;;;;;;47.63;20.23;;;;;;;-1.30;60.76;99756.72;5082589;28;20028;-57
2021/01/08 01:30:57;;;;;;;50.80;24.15;;;;;;;-1.32;60.32;99755.06;5078555;28;20070;-58
2021/01/08 01:33:23;;;;;;;51.67;22.85;;;;;;;-1.45;60.33;99725.69;5088830;28;20040;-60
2021/01/08 01:35:48;;;;;;;51.60;23.67;;;;;;;-1.28;60.42;99742.66;5076520;28;20486;-60
2021/01/08 01:38:14;;;;;;;53.30;21.67;;;;;;;-1.21;60.12;99744.16;5084400;28;20081;-61
2021/01/08 01:40:39;;;;;;;45.20;22.05;;;;;;;-1.69;60.63;99680.94;5083704;28;20043;-59
2021/01/08 01:43:05;;;;;;;47.90;21.55;;;;;;;-1.34;60.53;99728.84;5076937;28;20043;-60
2021/01/08 01:45:30;;;;;;;50.33;22.45;;;;;;;-1.40;60.87;99730.78;5088815;28;20039;-55
2021/01/08 01:47:57;;;;;;;44.67;22.73;;;;;;;-1.36;60.19;99735.03;5077721;28;20024;-59
2021/01/08 01:50:22;;;;;;;43.10;18.38;;;;;;;-1.24;59.87;99726.75;5082714;28;20418;-59
2021/01/08 01:52:48;;;;;;;40.60;20.05;;;;;;;-1.39;60.30;99728.13;5084995;28;20093;-58
2021/01/08 01:55:14;;;;;;;41.60;20.30;;;;;;;-1.46;60.67;99721.34;5075446;28;20103;-55
2021/01/08 01:57:40;;;;;;;44.60;19.65;;;;;;;-1.90;61.14;99633.50;5088329;28;20035;-57
2021/01/08 02:00:06;;;;;;;43.15;20.27;;;;;;;-1.57;60.63;99687.56;5078818;28;20081;-54
2021/01/08 02:02:45;;;;;;;43.92;19.73;;;;;;;-1.42;61.29;99728.22;5081232;28;20068;-58
2021/01/08 02:05:14;;;;;;;43.72;18.42;;;;;;;-1.39;60.96;99703.63;5087316;28;20465;-53
2021/01/08 02:07:50;;;;;;;39.05;17.65;;;;;;;-1.38;61.17;99718.47;5075014;28;20060;-55
2021/01/08 02:10:15;;;;;;;40.50;17.67;;;;;;;-1.55;60.76;99677.88;5083609;28;20036;-54
2021/01/08 02:12:44;;;;;;;45.97;17.55;;;;;;;-1.63;60.94;99680.75;5082972;28;20545;-55
2021/01/08 02:15:10;;;;;;;42.08;18.23;;;;;;;-1.73;61.30;99676.69;5075347;28;20418;-57
2021/01/08 02:17:35;;;;;;;40.25;17.40;;;;;;;-1.52;60.77;99711.03;5087616;28;20035;-55
2021/01/08 02:20:07;;;;;;;36.05;17.13;;;;;;;-1.75;61.57;99686.41;5077443;28;20428;-57
2021/01/08 02:22:47;;;;;;;39.00;18.77;;;;;;;-1.61;61.64;99707.81;5066020;28;20085;-58
2021/01/08 02:25:22;;;;;;;40.45;17.83;;;;;;;-1.63;61.52;99690.38;5057450;28;20480;-58
2021/01/08 02:28:26;;;;;;;39.63;17.58;;;;;;;-1.79;61.83;99669.03;5060831;28;20081;-58
2021/01/08 02:30:53;;;;;;;41.00;17.92;;;;;;;-1.73;61.25;99664.44;5077329;28;20040;-59
2021/01/08 02:33:20;;;;;;;39.40;16.35;;;;;;;-1.65;61.87;99697.47;5087806;28;20034;-58
2021/01/08 02:35:48;;;;;;;41.35;19.60;;;;;;;-1.69;61.77;99690.59;5075405;28;20119;-58
2021/01/08 02:38:16;;;;;;;35.67;16.33;;;;;;;-1.63;61.63;99686.00;5083393;28;20028;-54
2021/01/08 02:40:45;;;;;;;39.05;17.33;;;;;;;-1.62;61.75;99678.97;5082829;28;20455;-59
2021/01/08 02:43:12;;;;;;;33.15;15.18;;;;;;;-1.51;61.89;99681.25;5075314;28;20040;-57
2021/01/08 02:45:37;;;;;;;40.05;17.60;;;;;;;-1.65;61.50;99681.72;5087499;28;20112;-57
2021/01/08 02:48:03;;;;;;;36.33;16.25;;;;;;;-1.68;61.92;99676.56;5076350;28;20132;-59
2021/01/08 02:50:29;;;;;;;36.55;15.85;;;;;;;-1.66;62.01;99670.38;5080695;28;20058;-51
2021/01/08 02:53:02;;;;;;;41.05;17.80;;;;;;;-1.63;62.21;99682.50;5085022;28;20119;-54
2021/01/08 02:55:31;;;;;;;43.58;17.63;;;;;;;-1.73;62.24;99667.06;5074370;28;20032;-59
2021/01/08 02:58:02;;;;;;;31.90;15.93;;;;;;;-1.61;61.98;99681.56;5085671;28;20103;-58
2021/01/08 03:00:33;;;;;;;40.45;17.98;;;;;;;-1.58;62.01;99677.97;5081209;28;20399;-56
2021/01/08 03:03:00;;;;;;;31.77;13.30;;;;;;;-1.51;62.30;99678.63;5077018;28;20040;-59
2021/01/08 03:05:29;;;;;;;38.05;17.58;;;;;;;-1.66;62.48;99666.88;5087215;28;20407;-59
2021/01/08 03:07:55;;;;;;;39.95;18.08;;;;;;;-1.53;62.17;99659.44;5076002;28;20047;-57
2021/01/08 03:10:22;;;;;;;30.40;12.60;;;;;;;-1.33;61.75;99671.88;5081772;28;20029;-58
2021/01/08 03:12:57;;;;;;;35.65;16.95;;;;;;;-1.42;62.16;99677.47;5083284;28;20046;-52
2021/01/08 03:15:23;;;;;;;44.17;16.55;;;;;;;-1.51;62.16;99662.88;5073870;28;20396;-58
2021/01/08 03:17:49;;;;;;;37.97;17.33;;;;;;;-1.51;62.26;99674.25;5086036;28;20028;-57
2021/01/08 03:20:15;;;;;;;37.58;16.60;;;;;;;-1.55;62.01;99635.00;5078739;28;20036;-54
2021/01/08 03:22:42;;;;;;;37.72;16.50;;;;;;;-1.39;61.99;99679.97;5078362;28;20048;-59
2021/01/08 03:25:08;;;;;;;37.30;16.80;;;;;;;-1.43;62.30;99676.63;5085784;28;20036;-61
2021/01/08 03:27:33;;;;;;;36.35;16.63;;;;;;;-1.49;62.27;99650.53;5073398;28;20079;-57
2021/01/08 03:29:58;;;;;;;31.05;13.52;;;;;;;-1.32;61.81;99653.47;5084840;28;20173;-51
2021/01/08 03:32:24;;;;;;;23.08;9.45;;;;;;;-1.23;61.89;99646.16;5061832;28;20048;-60
2021/01/08 03:34:49;;;;;;;35.78;16.98;;;;;;;-2.37;62.41;99499.50;5077180;28;20047;-57
2021/01/08 03:37:15;;;;;;;38.30;17.05;;;;;;;-1.53;62.65;99638.44;5086716;28;20445;-59
2021/01/08 03:39:40;;;;;;;35.75;17.00;;;;;;;-1.44;61.93;99651.28;5063663;28;20028;-61
2021/01/08 03:42:06;;;;;;;32.78;15.65;;;;;;;-1.34;62.45;99647.41;5083385;28;20427;-61
2021/01/08 03:44:31;;;;;;;36.65;16.38;;;;;;;-1.42;62.14;99643.31;5080534;28;20032;-57
2021/01/08 03:46:57;;;;;;;35.85;16.80;;;;;;;-1.38;62.47;99666.81;5076314;28;20349;-56
2021/01/08 03:49:22;;;;;;;28.17;13.35;;;;;;;-1.22;61.89;99640.00;5086423;28;20381;-58
2021/01/08 03:51:48;;;;;;;36.63;17.40;;;;;;;-1.23;62.40;99639.16;5069907;28;20391;-56
2021/01/08 03:54:13;;;;;;;35.47;17.48;;;;;;;-1.24;62.54;99640.06;5078041;28;20412;-60
2021/01/08 03:56:39;;;;;;;33.72;16.50;;;;;;;-1.26;62.42;99641.03;5060170;28;20029;-56
2021/01/08 03:59:04;;;;;;;35.53;16.02;;;;;;;-1.20;62.28;99625.06;5084353;28;20036;-58
2021/01/08 04:01:29;;;;;;;37.25;17.58;;;;;;;-1.14;62.23;99619.59;5072831;28;20028;-57
2021/01/08 04:03:55;;;;;;;34.30;16.80;;;;;;;-1.03;61.84;99622.66;5084233;28;20125;-56
2021/01/08 04:06:20;;;;;;;36.95;17.55;;;;;;;-0.90;62.16;99632.75;5060741;28;20040;-56
2021/01/08 04:08:46;;;;;;;35.72;17.55;;;;;;;-0.82;61.46;99625.44;5077114;28;20036;-54
2021/01/08 04:11:11;;;;;;;37.53;17.02;;;;;;;-0.82;61.19;99632.47;5085599;28;20043;-53
2021/01/08 04:13:37;;;;;;;33.10;16.42;;;;;;;-0.91;61.17;99636.31;5072978;28;20042;-57
2021/01/08 04:16:03;;;;;;;33.45;15.30;;;;;;;-0.92;61.64;99618.81;5083440;28;20037;-56
2021/01/08 04:18:28;;;;;;;37.60;17.35;;;;;;;-1.06;61.45;99606.19;5079842;28;20032;-60
2021/01/08 04:20:54;;;;;;;34.85;16.90;;;;;;;-0.94;61.58;99615.38;5076150;28;20048;-59
2021/01/08 04:23:19;;;;;;;35.47;16.60;;;;;;;-0.94;61.53;99612.75;5086037;28;20123;-59
2021/01/08 04:25:45;;;;;;;32.17;17.38;;;;;;;-0.95;61.66;99624.19;5073737;28;20063;-57
2021/01/08 04:28:10;;;;;;;37.03;16.95;;;;;;;-0.88;61.22;99623.88;5082387;28;20120;-55
2021/01/08 04:30:35;;;;;;;30.48;14.10;;;;;;;-0.87;61.00;99612.44;5080420;28;20123;-56
2021/01/08 04:33:01;;;;;;;40.30;19.63;;;;;;;-1.04;60.93;99614.88;5074667;28;20037;-51
2021/01/08 04:35:26;;;;;;;36.75;18.05;;;;;;;-1.09;61.30;99609.75;5086258;28;20118;-57
2021/01/08 04:37:52;;;;;;;33.83;17.00;;;;;;;-1.25;61.76;99605.97;5074709;28;20505;-59
2021/01/08 04:40:18;;;;;;;40.92;16.90;;;;;;;-1.15;61.76;99594.22;5080656;28;20032;-56
2021/01/08 04:42:44;;;;;;;42.47;19.08;;;;;;;-1.06;61.33;99601.75;5081673;28;20173;-55
2021/01/08 04:45:10;;;;;;;39.08;17.70;;;;;;;-1.01;60.95;99605.06;5073393;28;20075;-59
2021/01/08 04:47:37;;;;;;;40.88;19.92;;;;;;;-1.30;62.09;99593.84;5087117;28;20032;-59
2021/01/08 04:50:03;;;;;;;37.00;17.73;;;;;;;-1.20;61.75;99594.38;5082902;28;20196;-54
2021/01/08 04:52:31;;;;;;;27.42;11.70;;;;;;;-0.99;60.73;99591.03;5079532;28;20024;-56
2021/01/08 04:54:57;;;;;;;38.00;18.40;;;;;;;-1.17;61.01;99598.69;5075497;28;20040;-57
2021/01/08 04:57:24;;;;;;;32.30;15.90;;;;;;;-1.19;61.00;99596.09;5085418;28;20043;-56
2021/01/08 04:59:50;;;;;;;40.00;17.58;;;;;;;-1.37;61.68;99602.88;5073997;28;20093;-60
2021/01/08 05:02:16;;;;;;;34.63;17.50;;;;;;;-1.41;61.96;99585.50;5080981;28;20044;-58
2021/01/08 05:04:43;;;;;;;40.20;19.55;;;;;;;-1.47;61.97;99591.81;5081334;28;20055;-56
2021/01/08 05:07:08;;;;;;;36.63;18.90;;;;;;;-1.61;62.82;99559.94;5073636;28;20154;-57
2021/01/08 05:09:34;;;;;;;38.15;18.55;;;;;;;-1.36;61.58;99569.56;5085832;28;20105;-62
2021/01/08 05:12:00;;;;;;;37.00;18.15;;;;;;;-1.31;61.42;99576.38;5078470;28;20173;-55
2021/01/08 05:14:26;;;;;;;39.42;18.80;;;;;;;-1.34;61.35;99602.75;5083337;28;20036;-57
2021/01/08 05:16:54;;;;;;;40.33;17.90;;;;;;;-1.43;62.35;99595.22;5086069;28;20135;-58
2021/01/08 05:19:23;;;;;;;39.03;18.05;;;;;;;-1.78;62.07;99526.41;5075767;28;20036;-56
2021/01/08 05:21:48;;;;;;;40.25;18.63;;;;;;;-1.41;62.20;99601.25;5088064;28;20158;-57
2021/01/08 05:24:16;;;;;;;38.13;17.50;;;;;;;-1.40;62.19;99612.59;5080560;28;20035;-57
2021/01/08 05:26:41;;;;;;;34.10;16.38;;;;;;;-1.36;61.66;99596.69;5080585;28;20182;-53
2021/01/08 05:29:07;;;;;;;29.00;12.77;;;;;;;-1.32;61.63;99585.16;5087835;28;20115;-56
2021/01/08 05:31:34;;;;;;;36.13;16.95;;;;;;;-1.35;62.07;99598.41;5075918;28;20067;-56
2021/01/08 05:34:00;;;;;;;35.58;17.35;;;;;;;-1.44;61.94;99590.88;5086217;28;20094;-55
2021/01/08 05:36:27;;;;;;;36.00;17.98;;;;;;;-1.46;62.18;99579.53;5082527;28;20063;-61
2021/01/08 05:38:54;;;;;;;35.20;17.13;;;;;;;-1.46;62.44;99563.78;5078784;28;20024;-59
2021/01/08 05:41:23;;;;;;;39.80;16.98;;;;;;;-1.34;61.74;99573.88;5089143;28;20131;-59
2021/01/08 05:43:48;;;;;;;39.30;18.77;;;;;;;-1.30;62.40;99588.59;5076820;28;20202;-60
2021/01/08 05:46:14;;;;;;;31.30;15.10;;;;;;;-1.23;61.97;99585.75;5084414;28;20148;-58
2021/01/08 05:48:42;;;;;;;26.63;12.20;;;;;;;-1.18;61.54;99566.28;5083343;28;20112;-59
2021/01/08 05:51:08;;;;;;;35.80;15.27;;;;;;;-1.42;61.72;99541.78;5075960;28;20039;-58
2021/01/08 05:53:35;;;;;;;36.53;16.85;;;;;;;-1.25;61.81;99585.81;5088300;28;20115;-55
2021/01/08 05:56:00;;;;;;;31.70;13.75;;;;;;;-1.17;61.56;99572.41;5078116;28;20399;-56
2021/01/08 05:58:26;;;;;;;37.10;16.92;;;;;;;-1.33;61.99;99586.09;5082523;28;20041;-53
2021/01/08 06:00:56;;;;;;;37.47;16.27;;;;;;;-1.36;62.63;99572.19;5085171;28;20085;-56
2021/01/08 06:03:22;;;;;;;27.73;13.05;;;;;;;-1.24;62.23;99581.41;5074780;28;20098;-56
2021/01/08 06:05:55;;;;;;;34.97;15.93;;;;;;;-1.32;62.31;99584.34;5087217;28;20036;-58
2021/01/08 06:08:36;;;;;;;37.90;17.38;;;;;;;-1.33;62.62;99566.81;5080799;28;20449;-58
2021/01/08 06:11:02;;;;;;;25.85;11.63;;;;;;;-1.13;62.30;99563.50;5077051;28;20131;-55
2021/01/08 06:13:32;;;;;;;33.67;15.82;;;;;;;-1.26;62.54;99567.47;5088937;28;20518;-58
2021/01/08 06:16:00;;;;;;;35.33;16.52;;;;;;;-1.30;63.32;99572.00;5077474;28;20020;-60
2021/01/08 06:18:26;;;;;;;26.20;11.77;;;;;;;-1.25;63.07;99558.69;5082062;28;20040;-58
2021/01/08 06:20:53;;;;;;;36.30;16.73;;;;;;;-1.31;63.27;99554.53;5084978;28;20042;-61
2021/01/08 06:23:45;;;;;;;34.00;15.80;;;;;;;-1.30;63.63;99562.34;5074952;28;20094;-54
2021/01/08 06:26:18;;;;;;;33.63;16.05;;;;;;;-1.26;63.61;99567.47;5083958;28;20041;-56
2021/01/08 06:28:46;;;;;;;32.85;14.98;;;;;;;-1.25;62.97;99541.16;5083243;28;20123;-55
2021/01/08 06:31:21;;;;;;;41.42;16.73;;;;;;;-0.97;62.62;99557.66;5075079;28;20032;-58
2021/01/08 06:33:59;;;;;;;;;;;;;;;-0.83;62.11;99557.16;5060451;28;20040;-56
2021/01/08 06:36:27;;;;;;;34.03;16.35;;;;;;;-0.96;62.49;99535.75;5081406;28;19962;-55
2021/01/08 06:38:56;;;;;;;34.95;15.88;;;;;;;-1.35;62.38;99466.22;5084946;28;20115;-59
2021/01/08 06:41:22;;;;;;;41.05;17.15;;;;;;;-0.82;61.96;99549.22;5074713;28;20039;-60
2021/01/08 06:43:58;;;;;;;35.50;16.30;;;;;;;-0.90;62.34;99538.97;5086801;28;20033;-56
2021/01/08 06:46:33;;;;;;;;;;;;;;;-0.71;61.71;99548.78;5080500;28;20036;-55
2021/01/08 06:49:01;;;;;;;36.20;14.75;;;;;;;-0.71;61.57;99561.94;5089793;28;20363;-57
2021/01/08 06:51:35;;;;;;;26.60;11.25;;;;;;;-0.86;61.67;99523.97;5074830;28;20036;-54
2021/01/08 06:54:04;;;;;;;40.28;17.65;;;;;;;-0.86;62.43;99542.34;5084613;28;20032;-54
2021/01/08 06:56:32;;;;;;;41.42;16.52;;;;;;;-0.88;62.40;99536.31;5080998;28;20032;-58
2021/01/08 06:58:59;;;;;;;41.88;16.20;;;;;;;-0.88;62.22;99541.56;5077212;28;20071;-57
2021/01/08 07:01:34;;;;;;;37.50;17.17;;;;;;;-0.94;62.39;99542.66;5087809;28;20032;-54
2021/01/08 07:04:01;;;;;;;40.45;18.20;;;;;;;-1.04;62.38;99517.63;5077001;28;20051;-51
2021/01/08 07:06:27;;;;;;;41.58;17.02;;;;;;;-0.94;62.84;99554.94;5081269;28;20051;-60
2021/01/08 07:08:53;;;;;;;32.05;15.35;;;;;;;-0.94;62.32;99547.91;5066148;28;20433;-61
2021/01/08 07:11:24;;;;;;;38.63;17.40;;;;;;;-1.53;62.52;99455.50;5073884;28;20462;-59
2021/01/08 07:13:49;;;;;;;28.70;12.90;;;;;;;-0.98;62.99;99532.28;5085762;28;20063;-61
2021/01/08 07:16:20;;;;;;;40.47;16.55;;;;;;;-0.99;62.91;99533.22;5078839;28;20129;-61
2021/01/08 07:18:45;;;;;;;39.00;17.38;;;;;;;-1.03;63.04;99530.69;5078063;28;20033;-62
2021/01/08 07:21:23;;;;;;;30.92;11.60;;;;;;;-0.83;62.92;99520.38;5086600;28;20043;-61
2021/01/08 07:23:51;;;;;;;31.30;12.43;;;;;;;-0.95;63.05;99504.13;5059070;28;20170;-62
2021/01/08 07:26:18;;;;;;;37.63;17.02;;;;;;;-0.93;62.91;99517.22;5083362;28;20120;-60
2021/01/08 07:28:49;;;;;;;36.20;16.63;;;;;;;-0.91;63.01;99529.38;5078422;28;20515;-60
2021/01/08 07:31:15;;;;;;;26.58;11.45;;;;;;;-0.81;62.83;99516.75;5086980;28;20036;-60
2021/01/08 07:33:46;;;;;;;23.40;10.27;;;;;;;-0.82;62.77;99517.66;5072866;28;20039;-60
2021/01/08 07:36:20;;;;;;;39.33;17.90;;;;;;;-1.05;62.71;99482.59;5079927;28;20032;-62
2021/01/08 07:38:45;;;;;;;36.78;16.67;;;;;;;-0.89;63.43;99522.28;5073486;28;20107;-60
2021/01/08 07:41:11;;;;;;;34.83;15.65;;;;;;;-0.83;62.85;99517.75;5071964;28;20033;-63
2021/01/08 07:43:37;;;;;;;24.25;10.35;;;;;;;-0.61;62.88;99521.22;5086477;28;20024;-58
2021/01/08 07:46:04;;;;;;;38.75;17.52;;;;;;;-0.73;62.18;99525.19;5076508;28;20089;-57
2021/01/08 07:48:34;;;;;;;36.00;17.08;;;;;;;-0.75;62.79;99519.13;5088599;28;20028;-51
2021/01/08 07:51:01;;;;;;;27.42;12.05;;;;;;;-0.63;61.69;99522.22;5075272;28;20039;-58
2021/01/08 07:53:42;;;;;;;30.15;13.95;;;;;;;-0.69;62.05;99512.78;5086808;28;20043;-58
2021/01/08 07:56:23;;;;;;;33.67;15.55;;;;;;;-0.88;62.47;99516.13;5077069;28;20127;-59
2021/01/08 07:59:03;;;;;;;36.28;16.80;;;;;;;-0.87;62.81;99507.31;5076988;28;20492;-62
2021/01/08 08:01:29;;;;;;;36.85;15.77;;;;;;;-0.87;63.19;99522.25;5086916;28;20137;-60
2021/01/08 08:04:08;;;;;;;35.53;15.40;;;;;;;-1.20;62.96;99438.56;5075342;28;20108;-60
2021/01/08 08:06:35;;;;;;;37.10;16.45;;;;;;;-0.73;62.44;99511.19;5078299;28;20147;-60
2021/01/08 08:09:04;;;;;;;34.70;16.80;;;;;;;-0.71;62.53;99500.63;5078391;28;20028;-57
2021/01/08 08:11:33;;;;;;;34.00;16.88;;;;;;;-0.61;62.30;99509.84;5085583;28;20446;-57
2021/01/08 08:13:59;;;;;;;37.80;17.48;;;;;;;-0.65;62.61;99516.16;5075840;28;20069;-62
2021/01/08 08:16:38;;;;;;;30.60;12.55;;;;;;;-0.50;61.96;99497.13;5080201;28;20041;-60
2021/01/08 08:19:08;;;;;;;35.30;16.98;;;;;;;-0.67;62.63;99510.09;5084309;28;20039;-60
2021/01/08 08:21:34;;;;;;;38.47;16.48;;;;;;;-0.58;62.36;99507.09;5072747;28;20048;-62
2021/01/08 08:24:02;;;;;;;34.85;17.27;;;;;;;-0.65;62.40;99485.44;5083180;28;20032;-57
2021/01/08 08:26:29;;;;;;;32.35;12.25;;;;;;;-0.47;61.82;99486.50;5079571;28;20491;-60
2021/01/08 08:29:03;;;;;;;34.03;15.18;;;;;;;-0.45;61.72;99494.31;5075182;28;20492;-63
2021/01/08 08:31:31;;;;;;;40.17;16.63;;;;;;;-0.50;62.35;99504.16;5085418;28;20047;-50
2021/01/08 08:33:58;;;;;;;29.58;11.40;;;;;;;-0.41;61.70;99492.44;5069188;28;20041;-60
2021/01/08 08:36:25;;;;;;;36.35;17.58;;;;;;;-0.63;62.20;99493.28;5069025;28;20036;-61
2021/01/08 08:38:57;;;;;;;24.20;11.30;;;;;;;-0.46;62.26;99485.59;5066059;28;20094;-60
2021/01/08 08:41:23;;;;;;;32.83;16.27;;;;;;;-0.65;62.35;99466.19;5069757;28;20047;-59
2021/01/08 08:43:49;;;;;;;36.97;14.93;;;;;;;-0.69;62.33;99441.78;5048269;28;20036;-62
2021/01/08 08:46:14;;;;;;;38.35;16.42;;;;;;;-0.50;61.83;99485.75;5053655;28;20021;-62
2021/01/08 08:48:40;;;;;;;30.83;14.35;;;;;;;-0.66;62.65;99478.47;5072180;28;20032;-56
2021/01/08 08:51:05;;;;;;;35.70;17.05;;;;;;;-0.86;62.82;99466.13;5081846;28;20043;-61
2021/01/08 08:53:31;;;;;;;29.60;12.77;;;;;;;-0.57;62.80;99482.50;5076554;28;20036;-59
2021/01/08 08:55:56;;;;;;;39.50;18.38;;;;;;;-0.69;62.69;99477.75;5074622;28;20423;-60
2021/01/08 08:58:22;;;;;;;41.00;17.48;;;;;;;-0.83;63.62;99468.63;5074301;28;20032;-59
2021/01/08 09:00:47;;;;;;;33.63;15.68;;;;;;;-0.67;63.26;99491.69;5074323;28;20052;-61
2021/01/08 09:03:24;;;;;;;40.30;17.45;;;;;;;-0.76;62.96;99471.88;5073855;28;20093;-60
2021/01/08 09:05:53;;;;;;;31.52;15.35;;;;;;;-0.75;63.01;99458.66;5073071;28;20028;-58
2021/01/08 09:08:27;;;;;;;26.60;13.25;;;;;;;-0.52;63.01;99488.44;5071457;28;20075;-60
2021/01/08 09:11:18;;;;;;;33.45;16.98;;;;;;;-0.56;62.81;99480.75;5086288;28;20115;-58
2021/01/08 09:14:09;;;;;;;37.00;16.23;;;;;;;-0.40;62.56;99473.09;5039144;28;20059;-59
2021/01/08 09:16:34;;;;;;;30.58;14.95;;;;;;;-0.42;62.73;99464.41;5063345;28;20039;-60
2021/01/08 09:19:16;;;;;;;37.42;17.58;;;;;;;-0.41;63.36;99484.53;5074014;28;20040;-57
2021/01/08 09:21:49;;;;;;;39.45;17.80;;;;;;;-0.32;62.95;99465.72;5073832;28;20020;-62
2021/01/08 09:24:34;;;;;;;38.97;16.25;;;;;;;-0.26;62.41;99464.63;5073832;28;20032;-62
2021/01/08 09:27:01;;;;;;;37.05;17.42;;;;;;;-0.29;62.30;99460.34;5072140;28;20032;-53
2021/01/08 09:29:31;;;;;;;29.73;14.50;;;;;;;-0.26;62.35;99448.84;5073898;28;20037;-59
2021/01/08 09:31:58;;;;;;;38.88;17.02;;;;;;;-0.24;62.50;99454.91;5071752;28;20067;-60
2021/01/08 09:34:25;;;;;;;37.17;17.52;;;;;;;-0.30;62.95;99459.50;5069168;28;20036;-62
2021/01/08 09:36:55;;;;;;;26.88;11.85;;;;;;;-0.05;62.04;99457.59;5071051;28;20407;-58
2021/01/08 09:39:22;;;;;;;37.90;16.52;;;;;;;-0.32;62.63;99423.66;5073974;28;20044;-55
2021/01/08 09:42:00;;;;;;;29.00;11.65;;;;;;;-0.04;61.87;99454.03;5070040;28;20105;-58
2021/01/08 09:44:35;;;;;;;34.42;16.98;;;;;;;-0.17;62.82;99444.06;5082418;28;20121;-61
2021/01/08 09:47:04;;;;;;;30.52;14.63;;;;;;;-0.19;61.88;99419.59;5077985;28;20033;-61
2021/01/08 09:49:52;;;;;;;28.08;10.82;;;;;;;-0.05;62.32;99441.81;5084350;28;20035;-54
2021/01/08 09:52:27;;;;;;;32.85;16.08;;;;;;;-0.07;62.25;99449.78;5071077;28;20032;-63
2021/01/08 09:54:53;;;;;;;32.35;15.40;;;;;;;-0.17;62.38;99433.53;5071074;28;20045;-62
2021/01/08 09:57:27;;;;;;;26.63;12.60;;;;;;;-0.05;62.78;99437.41;5070918;28;20033;-55
2021/01/08 10:00:00;;;;;;;31.42;14.48;;;;;;;-0.01;62.57;99435.47;5071212;28;20488;-63
2021/01/08 10:02:39;;;;;;;35.80;16.40;;;;;;;0.06;62.78;99433.44;5071374;28;20119;-61
2021/01/08 10:05:07;;;;;;;32.72;15.13;;;;;;;0.20;62.36;99420.53;5070853;28;20459;-64
2021/01/08 10:07:41;;;;;;;29.98;14.15;;;;;;;0.41;61.33;99423.97;5070369;28;20111;-60
2021/01/08 10:10:09;;;;;;;33.47;13.93;;;;;;;0.48;61.33;99431.59;5070893;28;20036;-63
2021/01/08 10:12:49;;;;;;;28.20;13.90;;;;;;;0.48;61.71;99419.28;5070757;28;20082;-63
2021/01/08 10:15:16;;;;;;;30.98;15.05;;;;;;;0.34;61.32;99385.69;5070461;28;20150;-62
2021/01/08 10:17:44;;;;;;;19.67;9.35;;;;;;;0.65;60.97;99405.34;5067499;28;20047;-64
2021/01/08 10:20:16;;;;;;;30.05;13.27;;;;;;;0.41;60.98;99407.34;5070252;28;20084;-63
2021/01/08 10:22:48;;;;;;;19.48;8.73;;;;;;;0.47;61.38;99411.44;5069869;28;20452;-63
2021/01/08 10:25:40;;;;;;;29.90;15.55;;;;;;;0.30;62.23;99405.19;5070418;28;20086;-63
2021/01/08 10:28:09;;;;;;;30.45;15.57;;;;;;;0.29;62.01;99408.75;5066527;28;20123;-63
2021/01/08 10:30:34;;;;;;;32.85;14.07;;;;;;;0.45;61.89;99400.13;5052423;28;20036;-64
2021/01/08 10:33:00;;;;;;;25.95;11.65;;;;;;;0.54;61.59;99402.38;5070237;28;20396;-56
2021/01/08 10:35:25;;;;;;;30.02;14.93;;;;;;;0.46;61.23;99383.41;5070379;28;20048;-63
2021/01/08 10:37:50;;;;;;;30.65;12.48;;;;;;;0.27;60.63;99335.06;5069695;28;20116;-60
2021/01/08 10:40:16;;;;;;;29.55;13.77;;;;;;;0.40;61.16;99397.72;5070119;28;20048;-63
2021/01/08 10:42:41;;;;;;;22.45;9.90;;;;;;;0.33;61.15;99377.84;5069623;28;20422;-62
2021/01/08 10:45:07;;;;;;;16.88;8.25;;;;;;;0.47;61.21;99408.81;5070316;28;20131;-64
2021/01/08 10:47:33;;;;;;;28.83;12.98;;;;;;;0.31;61.54;99384.97;5069508;28;20028;-61
2021/01/08 10:50:01;;;;;;;31.35;14.55;;;;;;;0.29;61.79;99395.59;5070305;28;20484;-61
2021/01/08 10:52:27;;;;;;;32.72;14.77;;;;;;;0.24;62.00;99408.94;5070019;28;20569;-59
2021/01/08 10:54:53;;;;;;;26.70;12.32;;;;;;;-0.35;61.65;99281.72;5051837;28;20048;-63
2021/01/08 10:57:19;;;;;;;27.27;13.05;;;;;;;0.18;61.86;99396.06;5069618;28;20086;-63
2021/01/08 10:59:45;;;;;;;28.55;14.73;;;;;;;0.04;62.37;99383.50;5069737;28;20033;-63
2021/01/08 11:02:11;;;;;;;20.42;8.88;;;;;;;0.36;62.04;99404.03;5069561;28;20441;-64
2021/01/08 11:04:37;;;;;;;31.60;14.57;;;;;;;0.11;62.49;99399.88;5061101;28;20072;-65
2021/01/08 11:07:02;;;;;;;28.88;14.38;;;;;;;0.14;62.53;99394.50;5069123;28;20037;-61
2021/01/08 11:09:29;;;;;;;34.55;16.17;;;;;;;0.06;62.89;99397.47;5069276;28;20028;-63
2021/01/08 11:11:54;;;;;;;28.63;14.68;;;;;;;0.02;62.94;99389.75;5070055;28;20036;-60
2021/01/08 11:14:20;;;;;;;34.85;17.08;;;;;;;0.16;63.05;99392.66;5069550;28;20463;-63
2021/01/08 11:16:45;;;;;;;24.88;9.77;;;;;;;0.34;62.05;99385.69;5069284;28;20127;-62
2021/01/08 11:19:11;;;;;;;39.88;16.58;;;;;;;0.22;62.80;99386.22;5068153;28;20478;-60
2021/01/08 11:21:36;;;;;;;34.03;16.40;;;;;;;0.24;62.78;99394.91;5068586;28;20032;-62
2021/01/08 11:24:02;;;;;;;37.85;16.60;;;;;;;0.25;62.79;99379.06;5068875;28;20381;-59